Annville, Kentucky
Current Conditions -  °F | °C
As of 12:53 PM on Friday 19 Dec 2014 (Local Time) from KLOZ Reporting Station
Clear Clear  
Wind Chill:   Ceiling: Unl
Heat Index:   Visibility: 10mi
Dew Point: -4°   Wind: 0mph
Humidity: 60%   Direction: NA
Pressure: 30.22"   Gusts: NA
Location:  37.32°N, 83.97°W
Report Text: KLOZ 191753Z AUTO 00000KT 10SM CLR 03/M04 A3022 RMK AO2 SLP240 T00331039 10050 20000 58008 $
Loading
Personal Weather Stations






























Interactive Weather Map New forecast layout! Learn more

10-Day Weather Forecast

Advertisements
Track Severe Weather on mobile